createdAt,value
2019-04-05T00:02:24.970Z,13.20
2019-04-05T00:04:54.326Z,13.05
2019-04-05T00:07:24.807Z,13.03
2019-04-05T00:09:56.131Z,13.13
2019-04-05T00:12:25.707Z,13.03
2019-04-05T00:14:55.088Z,14.07
2019-04-05T00:17:24.444Z,12.93
2019-04-05T00:19:55.889Z,12.82
2019-04-05T00:22:30.353Z,12.30
2019-04-05T00:25:04.516Z,13.13
2019-04-05T00:27:50.825Z,12.58
2019-04-05T00:30:22.261Z,13.62
2019-04-05T00:32:52.210Z,13.43
2019-04-05T00:35:22.800Z,13.83
2019-04-05T00:37:52.164Z,13.83
2019-04-05T00:40:21.537Z,13.93
2019-04-05T00:42:50.941Z,13.62
2019-04-05T00:45:27.927Z,12.90
2019-04-05T00:47:51.390Z,13.75
2019-04-05T00:50:20.797Z,14.10
2019-04-05T00:52:50.160Z,13.78
2019-04-05T00:55:19.543Z,13.85
2019-04-05T00:57:49.581Z,14.33
2019-04-05T01:00:19.158Z,13.53
2019-04-05T01:02:48.591Z,13.98
2019-04-05T01:05:18.275Z,13.68
2019-04-05T01:07:47.848Z,14.53
2019-04-05T01:10:17.604Z,13.62
2019-04-05T01:12:48.249Z,13.78
2019-04-05T01:15:17.827Z,13.83
2019-04-05T01:17:50.649Z,13.93
2019-04-05T01:20:21.479Z,13.70
2019-04-05T01:22:52.962Z,14.58
2019-04-05T01:25:23.308Z,14.35
2019-04-05T01:27:52.945Z,14.87
2019-04-05T01:30:22.381Z,14.78
2019-04-05T01:32:51.703Z,13.95
2019-04-05T01:35:21.185Z,14.07
2019-04-05T01:37:51.006Z,14.18
2019-04-05T01:40:20.466Z,14.07
2019-04-05T01:42:49.822Z,13.48
2019-04-05T01:45:19.622Z,15.00
2019-04-05T01:47:50.151Z,14.28
2019-04-05T01:50:19.624Z,14.55
2019-04-05T01:52:49.128Z,13.68
2019-04-05T01:55:18.475Z,15.65
2019-04-05T01:57:47.874Z,15.25
2019-04-05T02:00:17.615Z,14.85
2019-04-05T02:02:47.125Z,13.45
2019-04-05T02:05:16.763Z,15.95
2019-04-05T02:07:46.250Z,14.55
2019-04-05T02:10:16.456Z,14.43
2019-04-05T02:12:45.810Z,15.40
2019-04-05T02:15:27.797Z,15.30
2019-04-05T02:17:57.703Z,15.13
2019-04-05T02:20:27.317Z,14.45
2019-04-05T02:22:56.782Z,14.63
2019-04-05T02:25:26.304Z,13.95
2019-04-05T02:27:55.657Z,14.90
2019-04-05T02:30:25.391Z,14.38
2019-04-05T02:32:54.835Z,14.65
2019-04-05T02:35:24.444Z,14.55
2019-04-05T02:37:53.984Z,14.65
2019-04-05T02:40:28.325Z,15.78
2019-04-05T02:42:59.695Z,15.40
2019-04-05T02:45:32.255Z,14.93
2019-04-05T02:48:04.760Z,15.13
2019-04-05T02:50:36.956Z,16.30
2019-04-05T02:53:09.365Z,15.43
2019-04-05T02:55:41.135Z,15.48
2019-04-05T02:58:13.469Z,14.98
2019-04-05T03:00:44.096Z,15.53
2019-04-05T03:03:14.280Z,15.38
2019-04-05T03:05:46.216Z,15.05
2019-04-05T03:08:16.433Z,15.05
2019-04-05T03:11:03.722Z,14.98
2019-04-05T03:13:36.211Z,15.13
2019-04-05T03:16:08.707Z,16.15
2019-04-05T03:18:41.580Z,15.72
2019-04-05T03:21:12.132Z,15.15
2019-04-05T03:23:44.009Z,15.25
2019-04-05T03:26:16.455Z,15.68
2019-04-05T03:28:48.728Z,16.37
2019-04-05T03:31:24.526Z,16.15
2019-04-05T03:33:50.379Z,16.07
2019-04-05T03:36:20.062Z,15.45
2019-04-05T03:38:49.503Z,15.88
2019-04-05T03:41:19.066Z,16.62
2019-04-05T03:43:49.863Z,16.27
2019-04-05T03:46:20.006Z,16.05
2019-04-05T03:48:49.901Z,15.95
2019-04-05T03:51:19.833Z,17.85
2019-04-05T03:53:49.322Z,17.15
2019-04-05T03:56:19.416Z,16.90
2019-04-05T03:58:48.878Z,16.12
2019-04-05T04:01:18.293Z,16.87
2019-04-05T04:03:47.837Z,16.60
2019-04-05T04:06:17.447Z,17.20
2019-04-05T04:08:47.163Z,17.10
2019-04-05T04:11:16.684Z,16.67
2019-04-05T04:13:46.084Z,16.52
2019-04-05T04:16:15.655Z,17.00
2019-04-05T04:18:45.434Z,16.90
2019-04-05T04:21:20.597Z,15.83
2019-04-05T04:23:50.001Z,17.17
2019-04-05T04:26:20.718Z,16.12
2019-04-05T04:28:50.616Z,16.23
2019-04-05T04:31:20.135Z,16.35
2019-04-05T04:33:49.567Z,17.80
2019-04-05T04:36:25.780Z,17.30
2019-04-05T04:38:55.352Z,18.02
2019-04-05T04:41:24.882Z,17.67
2019-04-05T04:43:55.196Z,17.42
2019-04-05T04:46:25.874Z,16.97
2019-04-05T04:48:55.349Z,17.32
2019-04-05T04:51:24.762Z,17.75
2019-04-05T04:53:54.401Z,17.82
2019-04-05T04:56:24.345Z,18.37
2019-04-05T04:58:53.908Z,17.62
2019-04-05T05:01:23.338Z,18.30
2019-04-05T05:03:52.756Z,17.85
2019-04-05T05:06:22.785Z,17.45
2019-04-05T05:08:52.322Z,17.45
2019-04-05T05:11:21.885Z,17.98
2019-04-05T05:13:51.303Z,18.40
2019-04-05T05:16:20.767Z,17.80
2019-04-05T05:18:50.245Z,16.48
2019-04-05T05:21:20.035Z,17.00
2019-04-05T05:23:49.440Z,18.05
2019-04-05T05:26:20.009Z,17.25
2019-04-05T05:28:49.551Z,17.95
2019-04-05T05:31:19.465Z,17.85
2019-04-05T05:33:49.106Z,18.23
2019-04-05T05:36:19.052Z,18.45
2019-04-05T05:38:48.536Z,19.30
2019-04-05T05:41:17.979Z,17.92
2019-04-05T05:43:47.582Z,17.62
2019-04-05T05:46:16.908Z,18.50
2019-04-05T05:48:47.097Z,18.95
2019-04-05T05:51:16.603Z,17.65
2019-04-05T05:53:46.055Z,18.37
2019-04-05T05:56:16.973Z,18.07
2019-04-05T05:58:46.665Z,17.92
2019-04-05T06:01:16.171Z,17.40
2019-04-05T06:03:45.575Z,17.30
2019-04-05T06:06:16.974Z,18.02
2019-04-05T06:08:48.082Z,18.57
2019-04-05T06:11:18.873Z,18.35
2019-04-05T06:13:48.242Z,18.23
2019-04-05T06:16:17.681Z,19.45
2019-04-05T06:18:48.554Z,19.23
2019-04-05T06:21:18.475Z,18.60
2019-04-05T06:23:47.928Z,19.20
2019-04-05T06:26:17.327Z,18.62
2019-04-05T06:28:47.107Z,19.20
2019-04-05T06:31:16.599Z,19.02
2019-04-05T06:33:45.972Z,19.37
2019-04-05T06:36:15.358Z,19.65
2019-04-05T06:38:44.786Z,22.32
2019-04-05T06:41:14.212Z,20.37
2019-04-05T06:43:43.574Z,21.57
2019-04-05T06:46:13.006Z,21.87
2019-04-05T06:48:42.693Z,22.05
2019-04-05T06:51:13.775Z,23.65
2019-04-05T06:53:43.170Z,26.35
2019-04-05T06:56:12.730Z,28.92
2019-04-05T06:58:42.150Z,31.10
2019-04-05T07:01:11.514Z,32.78
2019-04-05T07:03:41.052Z,31.40
2019-04-05T07:06:10.485Z,33.42
2019-04-05T07:08:52.818Z,34.58
2019-04-05T07:11:10.990Z,36.08
2019-04-05T07:13:40.370Z,36.33
2019-04-05T07:16:11.122Z,39.33
2019-04-05T07:18:40.879Z,41.98
2019-04-05T07:21:10.287Z,41.55
2019-04-05T07:23:41.067Z,41.85
2019-04-05T07:26:10.431Z,41.55
2019-04-05T07:28:39.776Z,42.08
2019-04-05T07:31:09.227Z,42.70
2019-04-05T07:33:38.620Z,43.08
2019-04-05T07:36:08.025Z,43.13
2019-04-05T07:38:37.390Z,42.13
2019-04-05T07:41:06.793Z,42.40
2019-04-05T07:43:36.156Z,43.05
2019-04-05T07:46:05.504Z,40.83
2019-04-05T07:48:44.232Z,42.88
2019-04-05T07:51:06.530Z,44.77
2019-04-05T07:53:36.788Z,44.63
2019-04-05T07:56:13.694Z,44.98
2019-04-05T07:58:47.582Z,44.60
2019-04-05T08:01:17.244Z,43.70
2019-04-05T08:03:47.816Z,42.83
2019-04-05T08:06:17.246Z,40.92
2019-04-05T08:08:58.632Z,42.10
2019-04-05T08:11:28.864Z,43.48
2019-04-05T08:14:00.339Z,44.35
2019-04-05T08:16:30.977Z,44.03
2019-04-05T08:19:00.310Z,42.95
2019-04-05T08:21:29.682Z,44.15
2019-04-05T08:23:59.124Z,45.48
2019-04-05T08:26:29.261Z,45.67
2019-04-05T08:28:58.685Z,45.00
2019-04-05T08:31:28.040Z,46.48
2019-04-05T08:33:58.386Z,46.10
2019-04-05T08:36:27.842Z,47.20
2019-04-05T08:38:57.534Z,47.58
2019-04-05T08:41:26.918Z,46.68
2019-04-05T08:43:56.920Z,45.25
2019-04-05T08:46:27.731Z,45.85
2019-04-05T08:49:10.004Z,46.98
2019-04-05T08:51:30.747Z,44.77
2019-04-05T08:54:00.148Z,44.80
2019-04-05T08:56:29.518Z,46.55
2019-04-05T08:58:58.930Z,45.40
2019-04-05T09:01:28.370Z,46.50
2019-04-05T09:04:02.221Z,46.95
2019-04-05T09:06:31.616Z,46.05
2019-04-05T09:09:00.981Z,46.70
2019-04-05T09:11:32.216Z,46.70
2019-04-05T09:14:01.641Z,48.20
2019-04-05T09:16:31.078Z,46.55
2019-04-05T09:19:00.483Z,49.63
2019-04-05T09:21:29.961Z,47.48
2019-04-05T09:23:59.589Z,51.23
2019-04-05T09:26:29.059Z,49.65
2019-04-05T09:28:58.476Z,51.40
2019-04-05T09:31:27.881Z,51.30
2019-04-05T09:33:57.776Z,55.20
2019-04-05T09:36:27.140Z,52.55
2019-04-05T09:38:56.519Z,53.02
2019-04-05T09:41:25.966Z,52.45
2019-04-05T09:43:55.312Z,53.73
2019-04-05T09:46:24.690Z,54.18
2019-04-05T09:48:54.131Z,52.88
2019-04-05T09:51:23.516Z,54.45
2019-04-05T09:53:52.942Z,59.42
2019-04-05T09:56:22.349Z,54.42
2019-04-05T09:58:51.831Z,55.12
2019-04-05T10:01:21.288Z,55.65
2019-04-05T10:04:08.811Z,57.50
2019-04-05T10:06:39.938Z,56.40
2019-04-05T10:09:10.269Z,55.95
2019-04-05T10:11:42.878Z,57.85
2019-04-05T10:14:12.315Z,56.28
2019-04-05T10:16:41.769Z,56.25
2019-04-05T10:19:11.184Z,56.90
2019-04-05T10:21:40.538Z,57.50
2019-04-05T10:24:09.942Z,56.58
2019-04-05T10:26:39.349Z,56.92
2019-04-05T10:29:08.720Z,57.15
2019-04-05T10:31:38.138Z,57.78
2019-04-05T10:34:07.573Z,54.42
2019-04-05T10:36:37.021Z,51.75
2019-04-05T10:39:08.912Z,53.55
2019-04-05T10:41:38.263Z,54.75
2019-04-05T10:44:09.311Z,56.50
2019-04-05T10:46:38.873Z,54.55
2019-04-05T10:49:08.345Z,52.88
2019-04-05T10:51:37.671Z,49.58
2019-04-05T10:54:09.431Z,50.10
2019-04-05T10:56:38.089Z,51.28
2019-04-05T10:59:08.005Z,51.88
2019-04-05T11:01:37.437Z,59.15
2019-04-05T11:04:06.817Z,52.50
2019-04-05T11:06:36.188Z,55.30
2019-04-05T11:09:07.449Z,55.30
2019-04-05T11:11:36.892Z,57.83
2019-04-05T11:14:13.643Z,59.48
2019-04-05T11:16:38.392Z,59.18
2019-04-05T11:19:09.379Z,62.60
2019-04-05T11:21:39.483Z,60.55
2019-04-05T11:24:08.897Z,60.83
2019-04-05T11:26:39.251Z,60.30
2019-04-05T11:29:08.678Z,58.92
2019-04-05T11:31:38.099Z,57.53
2019-04-05T11:34:08.024Z,53.28
2019-04-05T11:36:38.024Z,51.28
2019-04-05T11:39:09.054Z,53.15
2019-04-05T11:41:40.011Z,50.48
2019-04-05T11:44:09.367Z,51.00
2019-04-05T11:46:39.215Z,48.60
2019-04-05T11:49:08.567Z,50.28
2019-04-05T11:51:37.933Z,43.78
2019-04-05T11:54:07.365Z,40.20
2019-04-05T11:56:37.182Z,40.08
2019-04-05T11:59:08.374Z,39.50
2019-04-05T12:01:39.353Z,39.42
2019-04-05T12:04:08.804Z,40.17
2019-04-05T12:06:38.180Z,39.45
2019-04-05T12:09:08.453Z,40.58
2019-04-05T12:11:37.892Z,40.98
2019-04-05T12:14:07.355Z,40.95
2019-04-05T12:16:36.738Z,39.48
2019-04-05T12:19:07.189Z,40.83
2019-04-05T12:21:36.640Z,40.67
2019-04-05T12:24:06.044Z,41.58
2019-04-05T12:26:35.425Z,40.65
2019-04-05T12:29:04.868Z,40.28
2019-04-05T12:31:34.307Z,40.73
2019-04-05T12:34:03.666Z,39.88
2019-04-05T12:36:33.006Z,40.58
2019-04-05T12:39:04.749Z,39.48
2019-04-05T12:41:33.447Z,41.80
2019-04-05T12:44:02.859Z,39.63
2019-04-05T12:46:32.222Z,39.73
2019-04-05T12:49:01.598Z,40.00
2019-04-05T12:51:30.960Z,40.98
2019-04-05T12:54:03.070Z,38.90
2019-04-05T12:56:33.411Z,40.48
2019-04-05T12:59:02.902Z,41.63
2019-04-05T13:01:32.878Z,39.23
2019-04-05T13:04:02.318Z,39.98
2019-04-05T13:06:31.782Z,39.35
2019-04-05T13:09:01.221Z,38.83
2019-04-05T13:11:32.239Z,41.00
2019-04-05T13:14:01.639Z,38.53
2019-04-05T13:16:31.069Z,40.85
2019-04-05T13:19:00.978Z,38.75
2019-04-05T13:21:32.943Z,38.92
2019-04-05T13:24:04.244Z,39.92
2019-04-05T13:26:33.210Z,39.18
2019-04-05T13:29:02.611Z,38.45
2019-04-05T13:31:31.971Z,40.43
2019-04-05T13:34:01.341Z,40.58
2019-04-05T13:36:30.763Z,39.90
2019-04-05T13:39:00.619Z,39.25
2019-04-05T13:41:32.418Z,41.00
2019-04-05T13:44:02.299Z,39.13
2019-04-05T13:46:32.026Z,40.63
2019-04-05T13:49:01.570Z,39.50
2019-04-05T13:51:32.072Z,39.00
2019-04-05T13:54:02.748Z,39.45
2019-04-05T13:56:32.127Z,41.20
2019-04-05T13:59:01.524Z,40.50
2019-04-05T14:01:30.876Z,39.42
2019-04-05T14:04:00.499Z,39.05
2019-04-05T14:06:29.872Z,39.95
2019-04-05T14:08:59.281Z,40.20
2019-04-05T14:11:29.869Z,39.40
2019-04-05T14:13:59.333Z,39.60
2019-04-05T14:16:28.795Z,38.90
2019-04-05T14:19:05.998Z,39.50
2019-04-05T14:21:47.573Z,39.05
2019-04-05T14:24:25.528Z,39.20
2019-04-05T14:27:13.810Z,40.78
2019-04-05T14:30:05.860Z,40.38
2019-04-05T14:32:53.719Z,38.85
2019-04-05T14:35:29.227Z,39.85
2019-04-05T14:38:13.389Z,39.92
2019-04-05T14:40:53.419Z,39.88
2019-04-05T14:43:44.631Z,39.30
2019-04-05T14:46:28.398Z,39.25
2019-04-05T14:49:04.959Z,41.02
2019-04-05T14:51:53.599Z,39.33
2019-04-05T14:54:27.269Z,40.65
2019-04-05T14:57:08.771Z,41.20
2019-04-05T14:59:46.764Z,39.58
2019-04-05T15:02:28.993Z,40.65
2019-04-05T15:05:09.334Z,39.90
2019-04-05T15:07:51.175Z,42.05
2019-04-05T15:10:31.228Z,41.85
2019-04-05T15:13:13.151Z,39.92
2019-04-05T15:15:51.085Z,39.92
2019-04-05T15:18:32.502Z,40.85
2019-04-05T15:21:12.566Z,41.42
2019-04-05T15:23:48.499Z,40.45
2019-04-05T15:26:25.683Z,40.78
2019-04-05T15:29:06.072Z,40.23
2019-04-05T15:31:46.017Z,40.03
2019-04-05T15:34:28.440Z,41.50
2019-04-05T15:37:05.624Z,39.78
2019-04-05T15:39:46.896Z,40.45
2019-04-05T15:42:23.905Z,40.92
2019-04-05T15:45:07.096Z,41.40
2019-04-05T15:47:52.481Z,39.63
2019-04-05T15:50:29.494Z,40.08
2019-04-05T15:53:11.930Z,40.55
2019-04-05T15:55:49.590Z,40.65
2019-04-05T15:58:26.067Z,39.67
2019-04-05T16:01:07.116Z,40.52
2019-04-05T16:03:47.123Z,39.48
2019-04-05T16:06:26.667Z,40.92
2019-04-05T16:09:02.664Z,40.23
2019-04-05T16:11:35.726Z,39.63
2019-04-05T16:14:13.943Z,40.75
2019-04-05T16:16:55.227Z,39.88
2019-04-05T16:19:32.479Z,41.48
2019-04-05T16:22:11.854Z,41.40
2019-04-05T16:24:45.025Z,40.60
2019-04-05T16:27:22.046Z,39.20
2019-04-05T16:30:01.509Z,41.63
2019-04-05T16:32:39.362Z,40.03
2019-04-05T16:35:18.267Z,40.43
2019-04-05T16:38:01.599Z,40.98
2019-04-05T16:40:41.394Z,39.83
2019-04-05T16:43:21.627Z,41.15
2019-04-05T16:45:59.831Z,40.73
2019-04-05T16:48:41.444Z,40.15
2019-04-05T16:51:19.490Z,40.58
2019-04-05T16:54:03.381Z,39.73
2019-04-05T16:56:39.744Z,41.15
2019-04-05T16:59:23.927Z,41.83
2019-04-05T17:02:01.310Z,41.60
2019-04-05T17:04:44.739Z,40.95
2019-04-05T17:07:23.172Z,41.48
2019-04-05T17:10:02.803Z,41.55
2019-04-05T17:12:39.579Z,42.15
2019-04-05T17:15:20.752Z,42.27
2019-04-05T17:18:02.498Z,40.78
2019-04-05T17:20:38.812Z,41.10
2019-04-05T17:23:23.312Z,41.48
2019-04-05T17:26:00.023Z,40.92
2019-04-05T17:28:40.444Z,41.55
2019-04-05T17:31:21.031Z,42.25
2019-04-05T17:33:59.700Z,41.25
2019-04-05T17:36:37.371Z,41.70
2019-04-05T17:39:19.529Z,41.53
2019-04-05T17:41:59.190Z,41.20
2019-04-05T17:44:39.912Z,42.43
2019-04-05T17:47:25.004Z,41.92
2019-04-05T17:50:05.530Z,42.17
2019-04-05T17:52:44.373Z,43.15
2019-04-05T17:55:23.219Z,40.73
2019-04-05T17:58:06.290Z,42.10
2019-04-05T18:00:47.412Z,42.13
2019-04-05T18:03:25.579Z,42.83
2019-04-05T18:05:58.120Z,43.50
2019-04-05T18:08:37.508Z,42.50
2019-04-05T18:11:09.772Z,41.25
2019-04-05T18:13:42.239Z,42.78
2019-04-05T18:16:18.638Z,41.60
2019-04-05T18:18:55.147Z,43.98
2019-04-05T18:21:35.401Z,42.40
2019-04-05T18:24:05.555Z,41.95
2019-04-05T18:26:37.245Z,41.90
2019-04-05T18:29:09.068Z,42.65
2019-04-05T18:31:38.523Z,41.77
2019-04-05T18:34:09.157Z,43.10
2019-04-05T18:36:38.607Z,42.65
2019-04-05T18:39:08.900Z,42.95
2019-04-05T18:41:38.580Z,43.25
2019-04-05T18:44:08.809Z,43.63
2019-04-05T18:46:38.575Z,42.43
2019-04-05T18:49:08.279Z,43.10
2019-04-05T18:51:47.299Z,43.52
2019-04-05T18:54:17.433Z,43.58
2019-04-05T18:56:52.346Z,43.48
2019-04-05T18:59:23.802Z,42.38
2019-04-05T19:02:02.656Z,42.78
2019-04-05T19:04:37.299Z,44.35
2019-04-05T19:07:09.640Z,41.98
2019-04-05T19:09:45.819Z,41.73
2019-04-05T19:12:20.266Z,42.35
2019-04-05T19:15:03.280Z,41.48
2019-04-05T19:17:36.721Z,41.18
2019-04-05T19:20:09.932Z,41.83
2019-04-05T19:22:57.254Z,40.88
2019-04-05T19:25:29.639Z,42.05
2019-04-05T19:28:10.317Z,40.85
2019-04-05T19:49:07.762Z,42.85
2019-04-05T19:51:51.017Z,41.73
2019-04-05T19:54:22.449Z,42.73
2019-04-05T19:56:55.688Z,44.05
2019-04-05T19:59:35.026Z,42.58
2019-04-05T20:02:05.497Z,43.02
2019-04-05T20:04:35.743Z,44.30
2019-04-05T20:07:17.977Z,43.60
2019-04-05T20:09:59.848Z,44.58
2019-04-05T20:12:35.367Z,43.28
2019-04-05T20:15:09.304Z,41.60
2019-04-05T20:17:41.852Z,42.83
2019-04-05T20:20:17.623Z,40.52
2019-04-05T20:22:52.135Z,42.27
2019-04-05T20:25:27.753Z,42.55
2019-04-05T20:27:59.426Z,42.95
2019-04-05T20:30:32.322Z,42.83
2019-04-05T20:33:07.297Z,43.33
2019-04-05T20:35:48.950Z,43.95
2019-04-05T20:38:29.370Z,42.87
2019-04-05T20:41:09.793Z,42.35
2019-04-05T20:43:43.664Z,42.17
2019-04-05T20:46:21.313Z,42.17
2019-04-05T20:49:01.591Z,42.83
2019-04-05T20:51:42.947Z,39.35
2019-04-05T20:54:25.495Z,42.35
2019-04-05T20:57:08.340Z,43.85
2019-04-05T20:59:47.597Z,41.70
2019-04-05T21:02:31.521Z,42.62
2019-04-05T21:05:06.863Z,40.73
2019-04-05T21:07:47.732Z,41.40
2019-04-05T21:10:26.674Z,42.27
2019-04-05T21:13:03.234Z,41.85
2019-04-05T21:18:27.190Z,42.20
2019-04-05T21:21:07.804Z,42.37
2019-04-05T21:23:43.038Z,40.38
2019-04-05T21:26:17.702Z,43.30
2019-04-05T21:31:31.546Z,42.53
2019-04-05T21:36:48.478Z,41.02
2019-04-05T21:39:33.033Z,43.00
2019-04-05T21:42:16.840Z,43.08
2019-04-05T21:45:00.383Z,40.80
2019-04-05T21:47:46.948Z,42.70
2019-04-05T21:50:33.855Z,43.38
2019-04-05T21:53:17.915Z,41.45
2019-04-05T21:56:03.754Z,42.10
2019-04-05T22:01:30.282Z,42.33
2019-04-05T22:06:51.774Z,41.98
2019-04-05T22:09:44.576Z,41.73
2019-04-05T22:12:32.665Z,43.00
2019-04-05T22:15:14.542Z,42.90
2019-04-05T22:17:56.531Z,43.48
2019-04-05T22:20:38.946Z,43.25
2019-04-05T22:23:21.024Z,43.73
2019-04-05T22:26:06.307Z,41.63
2019-04-05T22:28:49.139Z,42.58
2019-04-05T22:31:34.072Z,43.98
2019-04-05T22:34:18.848Z,45.45
2019-04-05T22:36:59.138Z,42.98
2019-04-05T22:39:42.418Z,42.73
2019-04-05T22:42:26.729Z,43.80
2019-04-05T22:45:19.675Z,45.05
2019-04-05T22:48:07.938Z,45.03
2019-04-05T22:50:52.054Z,45.35
2019-04-05T22:53:33.586Z,46.13
2019-04-05T22:56:08.209Z,44.38
2019-04-05T22:58:58.806Z,44.60
2019-04-05T23:01:47.214Z,44.40
2019-04-05T23:04:32.690Z,44.27
2019-04-05T23:07:13.384Z,45.12
2019-04-05T23:09:56.613Z,45.03
2019-04-05T23:12:39.993Z,46.65
2019-04-05T23:15:20.992Z,44.18
2019-04-05T23:18:07.410Z,52.27
2019-04-05T23:20:55.322Z,46.37
2019-04-05T23:23:38.397Z,43.40
2019-04-05T23:26:16.171Z,43.90
2019-04-05T23:28:56.769Z,46.10
2019-04-05T23:31:28.525Z,45.85
2019-04-05T23:34:00.866Z,45.48
2019-04-05T23:36:37.176Z,45.28
2019-04-05T23:39:19.157Z,47.53
2019-04-05T23:41:57.505Z,46.28
2019-04-05T23:44:34.214Z,46.37
2019-04-05T23:47:09.871Z,42.20
2019-04-05T23:49:48.142Z,45.10
2019-04-05T23:52:23.113Z,44.73
2019-04-05T23:55:01.755Z,42.85
2019-04-05T23:57:40.250Z,42.05
